sensor_id;sensor_type;location;lat;lon;timestamp;pressure;altitude;pressure_sealevel;temperature;humidity
52923;BME280;38796;42.702;23.306;2023-02-02T00:01:49;95348.66;;;2.92;64.57
52923;BME280;38796;42.702;23.306;2023-02-02T00:03:48;95355.22;;;2.83;64.69
52923;BME280;38796;42.702;23.306;2023-02-02T00:05:48;95359.69;;;2.81;64.44
52923;BME280;38796;42.702;23.306;2023-02-02T00:07:47;95345.25;;;2.76;64.88
52923;BME280;38796;42.702;23.306;2023-02-02T00:09:45;95341.69;;;3.08;63.16
52923;BME280;38796;42.702;23.306;2023-02-02T00:11:44;95338.88;;;3.27;62.08
52923;BME280;38796;42.702;23.306;2023-02-02T00:13:43;95339.03;;;3.24;62.80
52923;BME280;38796;42.702;23.306;2023-02-02T00:15:43;95349.38;;;3.10;62.33
52923;BME280;38796;42.702;23.306;2023-02-02T00:17:41;95341.13;;;3.03;63.06
52923;BME280;38796;42.702;23.306;2023-02-02T00:19:39;95341.53;;;2.96;63.40
52923;BME280;38796;42.702;23.306;2023-02-02T00:21:38;95339.03;;;2.94;63.85
52923;BME280;38796;42.702;23.306;2023-02-02T00:23:36;95348.25;;;3.00;63.42
52923;BME280;38796;42.702;23.306;2023-02-02T00:25:34;95348.00;;;3.04;63.22
52923;BME280;38796;42.702;23.306;2023-02-02T00:27:33;95349.66;;;3.05;63.22
52923;BME280;38796;42.702;23.306;2023-02-02T00:29:31;95352.94;;;3.09;63.13
52923;BME280;38796;42.702;23.306;2023-02-02T00:31:31;95353.88;;;3.08;62.89
52923;BME280;38796;42.702;23.306;2023-02-02T00:33:29;95354.78;;;3.07;62.41
52923;BME280;38796;42.702;23.306;2023-02-02T00:35:28;95353.94;;;3.06;63.23
52923;BME280;38796;42.702;23.306;2023-02-02T00:37:26;95361.84;;;3.05;62.37
52923;BME280;38796;42.702;23.306;2023-02-02T00:39:25;95363.19;;;2.96;62.80
52923;BME280;38796;42.702;23.306;2023-02-02T00:41:23;95363.69;;;2.87;63.25
52923;BME280;38796;42.702;23.306;2023-02-02T00:43:21;95365.06;;;2.78;63.45
52923;BME280;38796;42.702;23.306;2023-02-02T00:45:20;95368.94;;;2.71;64.00
52923;BME280;38796;42.702;23.306;2023-02-02T00:47:19;95365.00;;;2.64;64.21
52923;BME280;38796;42.702;23.306;2023-02-02T00:49:18;95353.75;;;2.63;64.02
52923;BME280;38796;42.702;23.306;2023-02-02T00:51:16;95365.56;;;2.69;64.02
52923;BME280;38796;42.702;23.306;2023-02-02T00:53:14;95364.88;;;2.65;64.13
52923;BME280;38796;42.702;23.306;2023-02-02T00:55:13;95358.03;;;2.64;64.12
52923;BME280;38796;42.702;23.306;2023-02-02T00:57:12;95363.56;;;2.74;65.11
52923;BME280;38796;42.702;23.306;2023-02-02T00:59:10;95350.22;;;2.64;65.15
52923;BME280;38796;42.702;23.306;2023-02-02T01:01:14;95353.31;;;2.87;65.82
52923;BME280;38796;42.702;23.306;2023-02-02T01:03:15;95338.25;;;3.08;65.46
52923;BME280;38796;42.702;23.306;2023-02-02T01:05:13;95337.50;;;3.06;65.43
52923;BME280;38796;42.702;23.306;2023-02-02T01:07:12;95337.84;;;3.00;66.36
52923;BME280;38796;42.702;23.306;2023-02-02T01:09:10;95339.28;;;2.89;66.38
52923;BME280;38796;42.702;23.306;2023-02-02T01:11:08;95340.63;;;2.81;67.09
52923;BME280;38796;42.702;23.306;2023-02-02T01:13:06;95339.41;;;2.72;67.13
52923;BME280;38796;42.702;23.306;2023-02-02T01:15:05;95335.97;;;2.72;67.67
52923;BME280;38796;42.702;23.306;2023-02-02T01:17:04;95333.34;;;2.56;67.96
52923;BME280;38796;42.702;23.306;2023-02-02T01:19:03;95331.59;;;2.40;68.90
52923;BME280;38796;42.702;23.306;2023-02-02T01:21:04;95338.41;;;2.27;69.48
52923;BME280;38796;42.702;23.306;2023-02-02T01:23:04;95334.47;;;2.20;69.60
52923;BME280;38796;42.702;23.306;2023-02-02T01:25:04;95332.03;;;2.17;69.98
52923;BME280;38796;42.702;23.306;2023-02-02T01:27:02;95331.25;;;2.15;70.45
52923;BME280;38796;42.702;23.306;2023-02-02T01:29:00;95325.47;;;2.10;70.45
52923;BME280;38796;42.702;23.306;2023-02-02T01:31:04;95323.78;;;2.09;70.49
52923;BME280;38796;42.702;23.306;2023-02-02T01:33:03;95329.38;;;2.01;71.00
52923;BME280;38796;42.702;23.306;2023-02-02T01:35:03;95325.94;;;2.01;71.27
52923;BME280;38796;42.702;23.306;2023-02-02T01:37:01;95328.84;;;1.95;71.73
52923;BME280;38796;42.702;23.306;2023-02-02T01:39:00;95327.06;;;1.79;72.24
52923;BME280;38796;42.702;23.306;2023-02-02T01:40:58;95320.53;;;1.72;72.81
52923;BME280;38796;42.702;23.306;2023-02-02T01:42:56;95328.72;;;1.64;73.48
52923;BME280;38796;42.702;23.306;2023-02-02T01:45:19;95322.78;;;1.62;74.33
52923;BME280;38796;42.702;23.306;2023-02-02T01:47:21;95325.44;;;1.61;74.38
52923;BME280;38796;42.702;23.306;2023-02-02T01:49:20;95316.53;;;1.49;75.16
52923;BME280;38796;42.702;23.306;2023-02-02T01:51:22;95313.16;;;1.47;74.92
52923;BME280;38796;42.702;23.306;2023-02-02T01:53:21;95313.84;;;1.33;75.80
52923;BME280;38796;42.702;23.306;2023-02-02T01:55:22;95306.00;;;1.35;75.41
52923;BME280;38796;42.702;23.306;2023-02-02T01:57:32;95303.81;;;1.27;75.94
52923;BME280;38796;42.702;23.306;2023-02-02T01:59:32;95310.13;;;1.22;76.80
52923;BME280;38796;42.702;23.306;2023-02-02T02:01:31;95300.63;;;1.05;77.58
52923;BME280;38796;42.702;23.306;2023-02-02T02:03:31;95300.28;;;0.93;78.71
52923;BME280;38796;42.702;23.306;2023-02-02T02:05:33;95289.56;;;0.84;79.16
52923;BME280;38796;42.702;23.306;2023-02-02T02:07:34;95296.00;;;0.75;80.00
52923;BME280;38796;42.702;23.306;2023-02-02T02:09:33;95298.97;;;0.67;80.33
52923;BME280;38796;42.702;23.306;2023-02-02T02:11:33;95298.00;;;0.70;80.71
52923;BME280;38796;42.702;23.306;2023-02-02T02:13:34;95305.00;;;0.68;80.71
52923;BME280;38796;42.702;23.306;2023-02-02T02:16:00;95313.84;;;0.64;81.08
52923;BME280;38796;42.702;23.306;2023-02-02T02:18:27;95307.91;;;0.62;81.29
52923;BME280;38796;42.702;23.306;2023-02-02T02:20:48;95304.75;;;0.55;82.21
52923;BME280;38796;42.702;23.306;2023-02-02T02:23:48;95313.38;;;0.56;82.27
52923;BME280;38796;42.702;23.306;2023-02-02T02:26:39;95307.50;;;0.52;82.25
52923;BME280;38796;42.702;23.306;2023-02-02T02:28:56;95310.69;;;0.57;82.66
52923;BME280;38796;42.702;23.306;2023-02-02T02:33:39;95312.16;;;0.63;82.25
52923;BME280;38796;42.702;23.306;2023-02-02T02:35:41;95314.06;;;0.59;82.59
52923;BME280;38796;42.702;23.306;2023-02-02T02:37:48;95308.78;;;0.61;82.65
52923;BME280;38796;42.702;23.306;2023-02-02T02:39:50;95311.16;;;0.48;83.14
52923;BME280;38796;42.702;23.306;2023-02-02T02:41:56;95306.31;;;0.40;83.21
52923;BME280;38796;42.702;23.306;2023-02-02T02:43:59;95311.56;;;0.39;83.62
52923;BME280;38796;42.702;23.306;2023-02-02T02:45:58;95305.50;;;0.40;82.64
52923;BME280;38796;42.702;23.306;2023-02-02T02:47:57;95313.53;;;0.34;82.97
52923;BME280;38796;42.702;23.306;2023-02-02T02:49:57;95318.94;;;0.29;82.93
52923;BME280;38796;42.702;23.306;2023-02-02T02:51:56;95301.09;;;0.23;83.10
52923;BME280;38796;42.702;23.306;2023-02-02T02:53:58;95308.38;;;0.15;83.50
52923;BME280;38796;42.702;23.306;2023-02-02T02:56:02;95309.28;;;0.14;83.96
52923;BME280;38796;42.702;23.306;2023-02-02T02:58:06;95307.59;;;0.13;83.91
52923;BME280;38796;42.702;23.306;2023-02-02T03:00:17;95309.41;;;0.11;84.07
52923;BME280;38796;42.702;23.306;2023-02-02T03:02:34;95306.00;;;0.10;83.92
52923;BME280;38796;42.702;23.306;2023-02-02T03:04:39;95305.78;;;0.15;83.92
52923;BME280;38796;42.702;23.306;2023-02-02T03:06:49;95302.34;;;0.14;84.04
52923;BME280;38796;42.702;23.306;2023-02-02T03:08:52;95307.19;;;0.22;83.70
52923;BME280;38796;42.702;23.306;2023-02-02T03:10:53;95303.53;;;0.26;83.40
52923;BME280;38796;42.702;23.306;2023-02-02T03:12:53;95308.16;;;0.19;83.41
52923;BME280;38796;42.702;23.306;2023-02-02T03:14:52;95297.59;;;0.24;83.36
52923;BME280;38796;42.702;23.306;2023-02-02T03:16:50;95307.72;;;0.29;82.95
52923;BME280;38796;42.702;23.306;2023-02-02T03:18:49;95297.81;;;0.19;83.07
52923;BME280;38796;42.702;23.306;2023-02-02T03:20:47;95302.56;;;0.10;83.37
52923;BME280;38796;42.702;23.306;2023-02-02T03:22:47;95299.22;;;0.08;84.00
52923;BME280;38796;42.702;23.306;2023-02-02T03:24:45;95300.66;;;0.13;84.07
52923;BME280;38796;42.702;23.306;2023-02-02T03:26:44;95299.97;;;0.10;84.29
52923;BME280;38796;42.702;23.306;2023-02-02T03:28:42;95299.91;;;0.11;84.30
52923;BME280;38796;42.702;23.306;2023-02-02T03:30:41;95299.75;;;0.14;84.09
52923;BME280;38796;42.702;23.306;2023-02-02T03:32:40;95307.75;;;0.10;84.19
52923;BME280;38796;42.702;23.306;2023-02-02T03:34:39;95302.69;;;0.07;84.33
52923;BME280;38796;42.702;23.306;2023-02-02T03:36:37;95303.75;;;0.03;84.27
52923;BME280;38796;42.702;23.306;2023-02-02T03:38:37;95307.41;;;-0.02;84.93
52923;BME280;38796;42.702;23.306;2023-02-02T03:40:35;95300.81;;;-0.09;85.29
52923;BME280;38796;42.702;23.306;2023-02-02T03:42:33;95307.81;;;-0.11;85.56
52923;BME280;38796;42.702;23.306;2023-02-02T03:44:31;95306.22;;;-0.13;85.88
52923;BME280;38796;42.702;23.306;2023-02-02T03:46:29;95306.44;;;-0.18;85.65
52923;BME280;38796;42.702;23.306;2023-02-02T03:48:28;95308.09;;;-0.17;85.99
52923;BME280;38796;42.702;23.306;2023-02-02T03:50:26;95308.09;;;-0.17;85.88
52923;BME280;38796;42.702;23.306;2023-02-02T03:52:25;95309.19;;;-0.22;86.39
52923;BME280;38796;42.702;23.306;2023-02-02T03:54:24;95310.13;;;-0.23;86.27
52923;BME280;38796;42.702;23.306;2023-02-02T03:56:23;95311.72;;;-0.21;86.14
52923;BME280;38796;42.702;23.306;2023-02-02T03:58:21;95310.94;;;-0.23;86.30
52923;BME280;38796;42.702;23.306;2023-02-02T04:00:20;95319.75;;;-0.27;86.53
52923;BME280;38796;42.702;23.306;2023-02-02T04:02:18;95313.19;;;-0.34;86.66
52923;BME280;38796;42.702;23.306;2023-02-02T04:04:17;95316.56;;;-0.32;86.57
52923;BME280;38796;42.702;23.306;2023-02-02T04:06:15;95317.50;;;-0.35;86.36
52923;BME280;38796;42.702;23.306;2023-02-02T04:08:15;95320.50;;;-0.44;86.23
52923;BME280;38796;42.702;23.306;2023-02-02T04:10:16;95318.69;;;-0.42;87.12
52923;BME280;38796;42.702;23.306;2023-02-02T04:12:14;95313.03;;;-0.50;87.11
52923;BME280;38796;42.702;23.306;2023-02-02T04:14:12;95316.50;;;-0.51;87.15
52923;BME280;38796;42.702;23.306;2023-02-02T04:16:11;95315.16;;;-0.60;87.74
52923;BME280;38796;42.702;23.306;2023-02-02T04:18:09;95320.47;;;-0.63;87.82
52923;BME280;38796;42.702;23.306;2023-02-02T04:20:09;95330.94;;;-0.66;87.58
52923;BME280;38796;42.702;23.306;2023-02-02T04:22:08;95326.78;;;-0.70;88.11
52923;BME280;38796;42.702;23.306;2023-02-02T04:24:09;95324.00;;;-0.65;88.37
52923;BME280;38796;42.702;23.306;2023-02-02T04:26:09;95323.84;;;-0.61;88.32
52923;BME280;38796;42.702;23.306;2023-02-02T04:28:07;95323.38;;;-0.50;87.93
52923;BME280;38796;42.702;23.306;2023-02-02T04:30:06;95325.97;;;-0.50;87.67
52923;BME280;38796;42.702;23.306;2023-02-02T04:32:05;95323.53;;;-0.55;87.88
52923;BME280;38796;42.702;23.306;2023-02-02T04:34:04;95323.84;;;-0.61;88.26
52923;BME280;38796;42.702;23.306;2023-02-02T04:36:03;95327.63;;;-0.69;88.54
52923;BME280;38796;42.702;23.306;2023-02-02T04:38:01;95306.25;;;-0.73;88.79
52923;BME280;38796;42.702;23.306;2023-02-02T04:39:59;95314.28;;;-0.79;89.40
52923;BME280;38796;42.702;23.306;2023-02-02T04:41:59;95313.47;;;-0.81;89.83
52923;BME280;38796;42.702;23.306;2023-02-02T04:43:57;95331.91;;;-0.89;89.97
52923;BME280;38796;42.702;23.306;2023-02-02T04:45:55;95330.34;;;-0.93;89.94
52923;BME280;38796;42.702;23.306;2023-02-02T04:47:53;95333.13;;;-0.98;90.30
52923;BME280;38796;42.702;23.306;2023-02-02T04:49:52;95327.22;;;-1.01;90.67
52923;BME280;38796;42.702;23.306;2023-02-02T04:51:50;95338.94;;;-0.92;91.06
52923;BME280;38796;42.702;23.306;2023-02-02T04:53:48;95325.31;;;-0.96;90.91
52923;BME280;38796;42.702;23.306;2023-02-02T04:55:47;95332.34;;;-1.00;90.91
52923;BME280;38796;42.702;23.306;2023-02-02T04:57:46;95329.69;;;-0.98;90.83
52923;BME280;38796;42.702;23.306;2023-02-02T04:59:45;95334.09;;;-1.00;90.69
52923;BME280;38796;42.702;23.306;2023-02-02T05:01:43;95347.19;;;-1.05;90.66
52923;BME280;38796;42.702;23.306;2023-02-02T05:03:42;95335.06;;;-1.03;91.05
52923;BME280;38796;42.702;23.306;2023-02-02T05:05:40;95337.56;;;-1.01;91.18
52923;BME280;38796;42.702;23.306;2023-02-02T05:07:38;95345.91;;;-0.94;90.91
52923;BME280;38796;42.702;23.306;2023-02-02T05:09:37;95338.25;;;-0.96;90.45
52923;BME280;38796;42.702;23.306;2023-02-02T05:11:35;95341.31;;;-1.08;90.59
52923;BME280;38796;42.702;23.306;2023-02-02T05:13:36;95339.81;;;-1.14;91.24
52923;BME280;38796;42.702;23.306;2023-02-02T05:15:34;95341.56;;;-1.14;90.70
52923;BME280;38796;42.702;23.306;2023-02-02T05:17:33;95332.31;;;-1.20;90.96
52923;BME280;38796;42.702;23.306;2023-02-02T05:19:31;95330.41;;;-1.15;91.47
52923;BME280;38796;42.702;23.306;2023-02-02T05:21:29;95337.13;;;-1.11;90.56
52923;BME280;38796;42.702;23.306;2023-02-02T05:23:29;95330.94;;;-1.07;90.18
52923;BME280;38796;42.702;23.306;2023-02-02T05:25:27;95332.47;;;-1.03;89.63
52923;BME280;38796;42.702;23.306;2023-02-02T05:27:26;95329.78;;;-1.00;89.21
52923;BME280;38796;42.702;23.306;2023-02-02T05:29:25;95335.19;;;-1.06;89.46
52923;BME280;38796;42.702;23.306;2023-02-02T05:31:23;95335.13;;;-1.04;89.52
52923;BME280;38796;42.702;23.306;2023-02-02T05:33:22;95340.34;;;-1.06;89.37
52923;BME280;38796;42.702;23.306;2023-02-02T05:35:20;95334.28;;;-1.05;89.68
52923;BME280;38796;42.702;23.306;2023-02-02T05:37:19;95340.34;;;-1.06;89.47
52923;BME280;38796;42.702;23.306;2023-02-02T05:39:17;95339.44;;;-1.05;89.07
52923;BME280;38796;42.702;23.306;2023-02-02T05:41:17;95346.22;;;-1.02;89.15
52923;BME280;38796;42.702;23.306;2023-02-02T05:43:15;95339.44;;;-1.05;89.00
52923;BME280;38796;42.702;23.306;2023-02-02T05:45:15;95344.44;;;-1.00;88.83
52923;BME280;38796;42.702;23.306;2023-02-02T05:47:13;95341.13;;;-1.04;88.61
52923;BME280;38796;42.702;23.306;2023-02-02T05:49:12;95340.94;;;-0.99;88.81
52923;BME280;38796;42.702;23.306;2023-02-02T05:51:15;95344.44;;;-1.00;88.52
52923;BME280;38796;42.702;23.306;2023-02-02T05:53:15;95342.63;;;-0.98;88.12
52923;BME280;38796;42.702;23.306;2023-02-02T05:55:14;95345.91;;;-0.94;88.66
52923;BME280;38796;42.702;23.306;2023-02-02T05:57:12;95350.75;;;-0.87;88.17
52923;BME280;38796;42.702;23.306;2023-02-02T05:59:10;95355.91;;;-0.65;87.21
52923;BME280;38796;42.702;23.306;2023-02-02T06:01:10;95353.03;;;-0.38;86.04
52923;BME280;38796;42.702;23.306;2023-02-02T06:03:08;95349.91;;;-0.26;84.67
52923;BME280;38796;42.702;23.306;2023-02-02T06:05:08;95348.09;;;-0.24;84.82
52923;BME280;38796;42.702;23.306;2023-02-02T06:07:07;95337.09;;;-0.29;84.68
52923;BME280;38796;42.702;23.306;2023-02-02T06:09:05;95356.06;;;-0.29;84.73
52923;BME280;38796;42.702;23.306;2023-02-02T06:11:08;95356.31;;;-0.14;84.44
52923;BME280;38796;42.702;23.306;2023-02-02T06:13:07;95350.78;;;0.12;83.35
52923;BME280;38796;42.702;23.306;2023-02-02T06:15:06;95350.50;;;0.18;82.74
52923;BME280;38796;42.702;23.306;2023-02-02T06:17:06;95349.31;;;0.26;82.17
52923;BME280;38796;42.702;23.306;2023-02-02T06:19:04;95351.31;;;0.93;81.02
52923;BME280;38796;42.702;23.306;2023-02-02T06:21:03;95352.22;;;1.44;77.51
52923;BME280;38796;42.702;23.306;2023-02-02T06:23:03;95366.38;;;1.89;75.34
52923;BME280;38796;42.702;23.306;2023-02-02T06:25:01;95357.88;;;2.03;74.20
52923;BME280;38796;42.702;23.306;2023-02-02T06:27:01;95366.91;;;1.96;74.00
52923;BME280;38796;42.702;23.306;2023-02-02T06:28:59;95372.84;;;1.64;74.79
52923;BME280;38796;42.702;23.306;2023-02-02T06:31:02;95376.66;;;1.40;75.78
52923;BME280;38796;42.702;23.306;2023-02-02T06:33:03;95373.06;;;1.08;76.89
52923;BME280;38796;42.702;23.306;2023-02-02T06:35:03;95369.59;;;0.90;77.31
52923;BME280;38796;42.702;23.306;2023-02-02T06:37:02;95375.28;;;0.62;78.03
52923;BME280;38796;42.702;23.306;2023-02-02T06:39:00;95386.13;;;0.70;78.41
52923;BME280;38796;42.702;23.306;2023-02-02T06:41:01;95391.72;;;0.80;77.48
52923;BME280;38796;42.702;23.306;2023-02-02T06:43:01;95381.22;;;0.64;78.42
52923;BME280;38796;42.702;23.306;2023-02-02T06:45:00;95379.69;;;0.60;78.23
52923;BME280;38796;42.702;23.306;2023-02-02T06:46:58;95368.63;;;0.56;78.23
52923;BME280;38796;42.702;23.306;2023-02-02T06:48:58;95382.84;;;0.47;78.64
52923;BME280;38796;42.702;23.306;2023-02-02T06:50:57;95369.81;;;0.49;78.81
52923;BME280;38796;42.702;23.306;2023-02-02T06:52:55;95377.59;;;0.49;78.70
52923;BME280;38796;42.702;23.306;2023-02-02T06:54:53;95377.44;;;0.52;78.76
52923;BME280;38796;42.702;23.306;2023-02-02T06:56:52;95385.78;;;0.59;78.70
52923;BME280;38796;42.702;23.306;2023-02-02T06:58:51;95385.34;;;0.68;77.86
52923;BME280;38796;42.702;23.306;2023-02-02T07:00:49;95387.88;;;0.69;77.98
52923;BME280;38796;42.702;23.306;2023-02-02T07:02:47;95385.06;;;0.74;77.86
52923;BME280;38796;42.702;23.306;2023-02-02T07:04:47;95386.53;;;0.80;77.62
52923;BME280;38796;42.702;23.306;2023-02-02T07:06:45;95396.03;;;0.79;77.95
52923;BME280;38796;42.702;23.306;2023-02-02T07:08:44;95398.78;;;0.76;78.65
52923;BME280;38796;42.702;23.306;2023-02-02T07:10:58;95389.13;;;0.80;78.64
52923;BME280;38796;42.702;23.306;2023-02-02T07:13:11;95376.84;;;0.83;78.33
52923;BME280;38796;42.702;23.306;2023-02-02T07:15:10;95379.97;;;0.90;77.72
52923;BME280;38796;42.702;23.306;2023-02-02T07:17:08;95384.28;;;1.08;77.35
52923;BME280;38796;42.702;23.306;2023-02-02T07:19:06;95387.63;;;1.10;77.19
52923;BME280;38796;42.702;23.306;2023-02-02T07:21:06;95389.31;;;1.11;77.70
52923;BME280;38796;42.702;23.306;2023-02-02T07:23:04;95389.69;;;1.04;78.20
52923;BME280;38796;42.702;23.306;2023-02-02T07:25:03;95391.38;;;1.05;78.29
52923;BME280;38796;42.702;23.306;2023-02-02T07:27:01;95395.19;;;0.98;78.30
52923;BME280;38796;42.702;23.306;2023-02-02T07:28:59;95392.03;;;0.91;78.49
52923;BME280;38796;42.702;23.306;2023-02-02T07:30:58;95393.63;;;0.93;78.65
52923;BME280;38796;42.702;23.306;2023-02-02T07:32:57;95390.13;;;0.94;78.67
52923;BME280;38796;42.702;23.306;2023-02-02T07:34:55;95400.69;;;1.09;78.03
52923;BME280;38796;42.702;23.306;2023-02-02T07:36:56;95399.13;;;1.41;77.03
52923;BME280;38796;42.702;23.306;2023-02-02T07:38:56;95395.06;;;1.70;75.57
52923;BME280;38796;42.702;23.306;2023-02-02T07:40:55;95399.59;;;2.00;74.90
52923;BME280;38796;42.702;23.306;2023-02-02T07:42:54;95395.34;;;2.14;73.99
52923;BME280;38796;42.702;23.306;2023-02-02T07:44:56;95395.25;;;2.16;74.71
52923;BME280;38796;42.702;23.306;2023-02-02T07:47:15;95380.13;;;2.24;73.95
52923;BME280;38796;42.702;23.306;2023-02-02T07:49:16;95390.53;;;2.56;73.12
52923;BME280;38796;42.702;23.306;2023-02-02T07:51:16;95376.63;;;2.88;71.34
52923;BME280;38796;42.702;23.306;2023-02-02T07:53:16;95367.88;;;3.05;70.75
52923;BME280;38796;42.702;23.306;2023-02-02T07:55:15;95365.38;;;3.04;70.48
52923;BME280;38796;42.702;23.306;2023-02-02T07:57:15;95375.78;;;3.04;69.72
52923;BME280;38796;42.702;23.306;2023-02-02T08:00:02;95376.34;;;3.09;70.25
52923;BME280;38796;42.702;23.306;2023-02-02T08:02:08;95365.31;;;3.20;69.71
52923;BME280;38796;42.702;23.306;2023-02-02T08:04:10;95363.59;;;3.34;68.54
52923;BME280;38796;42.702;23.306;2023-02-02T08:06:15;95354.53;;;3.42;68.74
52923;BME280;38796;42.702;23.306;2023-02-02T08:08:15;95364.44;;;3.65;67.99
52923;BME280;38796;42.702;23.306;2023-02-02T08:10:15;95358.88;;;4.14;67.06
52923;BME280;38796;42.702;23.306;2023-02-02T08:12:13;95358.88;;;4.14;67.06
52923;BME280;38796;42.702;23.306;2023-02-02T08:14:13;95337.84;;;8.10;54.19
52923;BME280;38796;42.702;23.306;2023-02-02T08:16:11;95340.44;;;9.43;50.01
52923;BME280;38796;42.702;23.306;2023-02-02T08:18:10;95334.53;;;9.51;48.91
52923;BME280;38796;42.702;23.306;2023-02-02T08:20:09;95327.41;;;9.09;49.62
52923;BME280;38796;42.702;23.306;2023-02-02T08:22:09;95333.94;;;8.49;50.36
52923;BME280;38796;42.702;23.306;2023-02-02T08:24:07;95333.09;;;8.60;51.02
52923;BME280;38796;42.702;23.306;2023-02-02T08:26:12;95338.63;;;9.11;49.68
52923;BME280;38796;42.702;23.306;2023-02-02T08:28:15;95331.03;;;9.29;48.96
52923;BME280;38796;42.702;23.306;2023-02-02T08:30:16;95337.88;;;9.95;48.09
52923;BME280;38796;42.702;23.306;2023-02-02T08:32:15;95333.84;;;10.63;46.84
52923;BME280;38796;42.702;23.306;2023-02-02T08:34:21;95325.38;;;10.29;47.16
52923;BME280;38796;42.702;23.306;2023-02-02T08:36:27;95321.84;;;12.35;43.09
52923;BME280;38796;42.702;23.306;2023-02-02T08:38:31;95313.47;;;13.05;41.69
52923;BME280;38796;42.702;23.306;2023-02-02T08:40:29;95317.97;;;13.93;39.82
52923;BME280;38796;42.702;23.306;2023-02-02T08:42:29;95312.78;;;14.96;37.24
52923;BME280;38796;42.702;23.306;2023-02-02T08:44:27;95314.56;;;14.79;37.00
52923;BME280;38796;42.702;23.306;2023-02-02T08:46:46;95307.97;;;14.31;38.16
52923;BME280;38796;42.702;23.306;2023-02-02T08:48:45;95308.00;;;13.34;38.80
52923;BME280;38796;42.702;23.306;2023-02-02T08:50:43;95297.78;;;12.75;40.18
52923;BME280;38796;42.702;23.306;2023-02-02T08:52:42;95293.63;;;12.73;40.49
52923;BME280;38796;42.702;23.306;2023-02-02T08:54:40;95300.53;;;12.19;42.02
52923;BME280;38796;42.702;23.306;2023-02-02T08:56:38;95286.47;;;12.83;40.11
52923;BME280;38796;42.702;23.306;2023-02-02T08:58:38;95286.34;;;12.85;38.68
52923;BME280;38796;42.702;23.306;2023-02-02T09:00:37;95286.84;;;14.13;36.22
52923;BME280;38796;42.702;23.306;2023-02-02T09:02:35;95291.47;;;14.37;35.59
52923;BME280;38796;42.702;23.306;2023-02-02T09:04:47;95295.00;;;15.39;34.03
52923;BME280;38796;42.702;23.306;2023-02-02T09:06:46;95291.28;;;15.74;32.89
52923;BME280;38796;42.702;23.306;2023-02-02T09:08:47;95283.25;;;15.42;33.52
52923;BME280;38796;42.702;23.306;2023-02-02T09:10:52;95281.53;;;15.08;33.58
52923;BME280;38796;42.702;23.306;2023-02-02T09:13:13;95289.69;;;14.72;34.67
52923;BME280;38796;42.702;23.306;2023-02-02T09:15:13;95285.31;;;14.63;34.66
52923;BME280;38796;42.702;23.306;2023-02-02T09:17:11;95276.94;;;15.43;33.28
52923;BME280;38796;42.702;23.306;2023-02-02T09:19:14;95276.06;;;14.67;34.24
52923;BME280;38796;42.702;23.306;2023-02-02T09:21:17;95286.94;;;12.69;37.67
52923;BME280;38796;42.702;23.306;2023-02-02T09:23:16;95283.75;;;13.20;37.80
52923;BME280;38796;42.702;23.306;2023-02-02T09:25:14;95272.50;;;14.84;35.18
52923;BME280;38796;42.702;23.306;2023-02-02T09:27:12;95274.94;;;16.90;32.14
52923;BME280;38796;42.702;23.306;2023-02-02T09:29:12;95268.44;;;18.01;29.85
52923;BME280;38796;42.702;23.306;2023-02-02T09:31:12;95267.72;;;18.07;29.33
52923;BME280;38796;42.702;23.306;2023-02-02T09:33:11;95261.47;;;18.00;29.67
52923;BME280;38796;42.702;23.306;2023-02-02T09:35:09;95255.25;;;17.85;30.14
52923;BME280;38796;42.702;23.306;2023-02-02T09:37:07;95251.75;;;17.61;28.80
52923;BME280;38796;42.702;23.306;2023-02-02T09:39:06;95246.16;;;18.32;28.74
52923;BME280;38796;42.702;23.306;2023-02-02T09:41:24;95257.44;;;17.35;29.71
52923;BME280;38796;42.702;23.306;2023-02-02T09:43:36;95253.19;;;18.10;28.87
52923;BME280;38796;42.702;23.306;2023-02-02T09:45:46;95255.00;;;18.47;28.35
52923;BME280;38796;42.702;23.306;2023-02-02T09:47:53;95242.44;;;18.03;29.43
52923;BME280;38796;42.702;23.306;2023-02-02T09:49:57;95245.50;;;19.61;27.17
52923;BME280;38796;42.702;23.306;2023-02-02T09:52:01;95239.44;;;20.45;25.92
52923;BME280;38796;42.702;23.306;2023-02-02T09:54:09;71098.53;;;-144.19;25.92
52923;BME280;38796;42.702;23.306;2023-02-02T09:56:14;95241.91;;;19.48;26.64
52923;BME280;38796;42.702;23.306;2023-02-02T09:58:18;95234.28;;;19.08;27.21
52923;BME280;38796;42.702;23.306;2023-02-02T10:00:26;95240.19;;;19.83;26.51
52923;BME280;38796;42.702;23.306;2023-02-02T10:02:29;95222.00;;;20.21;25.94
52923;BME280;38796;42.702;23.306;2023-02-02T10:04:33;95227.31;;;19.29;25.62
52923;BME280;38796;42.702;23.306;2023-02-02T10:06:35;95224.91;;;18.38;27.49
52923;BME280;38796;42.702;23.306;2023-02-02T10:08:40;95224.38;;;16.98;29.39
52923;BME280;38796;42.702;23.306;2023-02-02T10:10:41;95228.84;;;17.06;29.72
52923;BME280;38796;42.702;23.306;2023-02-02T10:12:44;95232.97;;;15.32;32.11
52923;BME280;38796;42.702;23.306;2023-02-02T10:14:51;95220.72;;;14.56;33.53
52923;BME280;38796;42.702;23.306;2023-02-02T10:16:54;95222.72;;;12.68;36.50
52923;BME280;38796;42.702;23.306;2023-02-02T10:18:56;95233.16;;;11.29;39.25
52923;BME280;38796;42.702;23.306;2023-02-02T10:21:00;95216.28;;;12.25;39.03
52923;BME280;38796;42.702;23.306;2023-02-02T10:23:08;95208.13;;;12.46;38.20
52923;BME280;38796;42.702;23.306;2023-02-02T10:25:11;95210.56;;;11.93;39.26
52923;BME280;38796;42.702;23.306;2023-02-02T10:27:14;95205.91;;;12.69;38.84
52923;BME280;38796;42.702;23.306;2023-02-02T10:29:15;95204.56;;;13.55;36.77
52923;BME280;38796;42.702;23.306;2023-02-02T10:31:17;95217.91;;;14.31;35.26
52923;BME280;38796;42.702;23.306;2023-02-02T10:33:26;95195.03;;;15.56;32.93
52923;BME280;38796;42.702;23.306;2023-02-02T10:35:35;95194.41;;;16.34;31.21
52923;BME280;38796;42.702;23.306;2023-02-02T10:37:42;95182.09;;;16.41;31.18
52923;BME280;38796;42.702;23.306;2023-02-02T10:40:04;95174.28;;;16.40;31.49
52923;BME280;38796;42.702;23.306;2023-02-02T10:42:16;95173.81;;;15.56;31.60